Time;durP1;ratioP1;P1;durP2;ratioP2;P2;SDS_P1;SDS_P2;PMS_P1;PMS_P2;Temp;Humidity;BMP_temperature;BMP_pressure;BME280_temperature;BME280_humidity;BME280_pressure;Samples;Min_cycle;Max_cycle;Signal;HPM_P1;HPM_P2
2022/12/10 00:01:49;;;;;;;43.85;33.28;;;-1.30;99.90;;;;;;4959432;28;89442;-30
2022/12/10 00:04:15;;;;;;;51.58;33.65;;;-1.30;99.90;;;;;;4959905;28;88990;-33
2022/12/10 00:06:42;;;;;;;44.42;34.20;;;-1.40;99.90;;;;;;4959463;28;90082;-31
2022/12/10 00:09:11;;;;;;;46.15;33.85;;;-1.40;99.90;;;;;;4959167;28;90267;-32
2022/12/10 00:11:38;;;;;;;49.75;35.35;;;-1.40;99.90;;;;;;4959159;28;89350;-33
2022/12/10 00:14:04;;;;;;;41.45;31.85;;;-1.40;99.90;;;;;;4959070;28;89637;-33
2022/12/10 00:16:33;;;;;;;45.42;33.92;;;-1.40;99.90;;;;;;4958889;28;89783;-31
2022/12/10 00:18:59;;;;;;;44.00;34.17;;;-1.40;99.90;;;;;;4958466;28;89133;-33
2022/12/10 00:21:28;;;;;;;44.03;32.08;;;-1.50;99.90;;;;;;4959440;28;90550;-31
2022/12/10 00:23:54;;;;;;;45.65;33.58;;;-1.50;99.90;;;;;;4959589;28;89300;-31
2022/12/10 00:26:25;;;;;;;43.55;31.83;;;-1.60;99.90;;;;;;4959205;28;91567;-30
2022/12/10 00:28:52;;;;;;;46.90;34.25;;;-1.60;99.90;;;;;;4959497;28;89354;-31
2022/12/10 00:31:23;;;;;;;45.90;33.55;;;-1.60;99.90;;;;;;4959356;28;89752;-32
2022/12/10 00:33:50;;;;;;;48.97;34.60;;;-1.60;99.90;;;;;;4959322;28;89324;-31
2022/12/10 00:36:27;;;;;;;45.17;33.35;;;-1.70;99.90;;;;;;4958685;28;89877;-30
2022/12/10 00:38:53;;;;;;;50.53;34.78;;;-1.70;99.90;;;;;;4958672;28;90767;-30
2022/12/10 00:41:19;;;;;;;47.58;35.25;;;-1.70;99.90;;;;;;4959426;28;90614;-29
2022/12/10 00:43:45;;;;;;;42.10;30.67;;;-1.80;99.90;;;;;;4959036;28;89178;-32
2022/12/10 00:46:12;;;;;;;48.40;33.90;;;-1.80;99.90;;;;;;4959207;28;90367;-33
2022/12/10 00:48:38;;;;;;;44.25;32.63;;;-1.80;99.90;;;;;;4958479;28;89733;-33
2022/12/10 00:51:07;;;;;;;47.40;33.50;;;-1.80;99.90;;;;;;4959011;28;89709;-30
2022/12/10 00:53:34;;;;;;;50.10;33.72;;;-1.80;99.90;;;;;;4958968;28;88905;-30
2022/12/10 00:56:01;;;;;;;46.85;33.40;;;-1.80;99.90;;;;;;4959508;28;93083;-31
2022/12/10 00:58:29;;;;;;;46.65;31.00;;;-1.80;99.90;;;;;;4959073;28;90115;-31
2022/12/10 01:00:54;;;;;;;48.38;32.55;;;-1.80;99.90;;;;;;4958703;28;90543;-32
2022/12/10 01:03:20;;;;;;;52.35;35.70;;;-1.80;99.90;;;;;;4958973;28;90327;-33
2022/12/10 01:05:46;;;;;;;51.75;35.17;;;-1.70;99.90;;;;;;4958203;28;90175;-31
2022/12/10 01:08:12;;;;;;;46.20;33.15;;;-1.70;99.90;;;;;;4958613;28;89205;-31
2022/12/10 01:10:37;;;;;;;52.70;34.72;;;-1.70;99.90;;;;;;4958708;28;89831;-31
2022/12/10 01:13:04;;;;;;;46.00;32.90;;;-1.60;99.90;;;;;;4958902;28;89735;-32
2022/12/10 01:15:29;;;;;;;52.72;35.72;;;-1.60;99.90;;;;;;4959035;28;90044;-32
2022/12/10 01:17:55;;;;;;;48.50;34.35;;;-1.60;99.90;;;;;;4958831;28;89685;-32
2022/12/10 01:20:20;;;;;;;55.20;36.20;;;-1.50;99.90;;;;;;4958648;28;90143;-32
2022/12/10 01:22:46;;;;;;;52.55;37.65;;;-1.50;99.90;;;;;;4958364;28;88285;-33
2022/12/10 01:25:12;;;;;;;41.22;32.13;;;-1.50;99.90;;;;;;4960181;28;90229;-30
2022/12/10 01:27:37;;;;;;;54.60;35.75;;;-1.40;99.90;;;;;;4962041;28;91005;-32
2022/12/10 01:30:03;;;;;;;52.28;35.97;;;-1.40;99.90;;;;;;4961693;28;89571;-29
2022/12/10 01:32:29;;;;;;;45.35;36.05;;;-1.30;99.90;;;;;;4962562;28;89240;-31
2022/12/10 01:34:55;;;;;;;50.78;36.17;;;-1.30;99.90;;;;;;4959724;28;92195;-29
2022/12/10 01:37:20;;;;;;;54.95;36.85;;;-1.30;99.90;;;;;;4960512;28;90052;-31
2022/12/10 01:39:46;;;;;;;53.70;36.72;;;-1.30;99.90;;;;;;4961783;28;89497;-32
2022/12/10 01:42:13;;;;;;;60.97;41.28;;;-1.30;99.90;;;;;;4974767;28;89524;-33
2022/12/10 01:44:42;;;;;;;59.30;37.33;;;-1.20;99.90;;;;;;4963277;28;88977;-30
2022/12/10 01:47:08;;;;;;;61.95;40.35;;;-1.20;99.90;;;;;;4961992;28;89687;-33
2022/12/10 01:49:39;;;;;;;57.60;37.33;;;-1.20;99.90;;;;;;4961342;28;89607;-30
2022/12/10 01:52:09;;;;;;;61.60;38.63;;;-1.10;99.90;;;;;;4961510;28;88443;-31
2022/12/10 01:54:41;;;;;;;61.40;41.75;;;-1.10;99.90;;;;;;4961955;28;89624;-31
2022/12/10 01:57:29;;;;;;;58.72;40.45;;;-1.00;99.90;;;;;;4961946;28;90652;-32
2022/12/10 02:00:00;;;;;;;66.32;42.80;;;-1.00;99.90;;;;;;4961512;28;89858;-32
2022/12/10 02:02:34;;;;;;;58.30;40.17;;;-1.00;99.90;;;;;;4961076;28;89743;-33
2022/12/10 02:05:27;;;;;;;51.63;38.13;;;-1.00;99.90;;;;;;4953074;28;90814;-31
2022/12/10 02:08:03;;;;;;;63.03;40.28;;;-1.00;99.90;;;;;;4961618;28;90660;-31
2022/12/10 02:10:34;;;;;;;66.00;40.83;;;-0.90;99.90;;;;;;4961531;28;89581;-30
2022/12/10 02:13:36;;;;;;;54.17;39.97;;;-0.90;99.90;;;;;;4961445;28;88464;-31
2022/12/10 02:16:18;;;;;;;57.03;39.35;;;-0.90;99.90;;;;;;4961599;28;92065;-31
2022/12/10 02:18:57;;;;;;;50.83;34.65;;;-1.00;99.90;;;;;;4960899;28;89133;-31
2022/12/10 02:21:29;;;;;;;74.03;43.30;;;-0.90;99.90;;;;;;4961861;28;89286;-30
2022/12/10 02:24:01;;;;;;;62.15;39.05;;;-0.90;99.90;;;;;;4960599;28;88957;-31
2022/12/10 02:26:48;;;;;;;59.63;40.78;;;-1.00;99.90;;;;;;4955600;28;90927;-30
2022/12/10 02:29:19;;;;;;;63.63;42.05;;;-0.90;99.90;;;;;;4954784;28;89948;-32
2022/12/10 02:32:11;;;;;;;60.75;42.20;;;-0.90;99.90;;;;;;4961109;28;89538;-32
2022/12/10 02:34:47;;;;;;;58.35;43.92;;;-0.90;99.90;;;;;;4958291;28;88396;-30
2022/12/10 02:37:31;;;;;;;59.10;40.78;;;-0.90;99.90;;;;;;4959887;28;89364;-30
2022/12/10 02:40:01;;;;;;;56.78;42.35;;;-1.00;99.90;;;;;;4961485;28;90671;-31
2022/12/10 02:42:29;;;;;;;57.85;39.78;;;-0.90;99.90;;;;;;4961205;28;88618;-32
2022/12/10 02:44:56;;;;;;;66.07;42.25;;;-0.90;99.90;;;;;;4960590;28;89574;-33
2022/12/10 02:47:22;;;;;;;64.75;43.13;;;-1.00;99.90;;;;;;4960581;28;90357;-30
2022/12/10 02:49:52;;;;;;;65.97;43.30;;;-1.00;99.90;;;;;;4960052;28;89752;-33
2022/12/10 02:52:20;;;;;;;61.03;40.40;;;-1.00;99.90;;;;;;4960959;28;89270;-32
2022/12/10 02:54:47;;;;;;;62.35;42.88;;;-1.00;99.90;;;;;;4960774;28;89976;-31
2022/12/10 02:57:28;;;;;;;67.60;42.03;;;-1.00;99.90;;;;;;4960725;28;90274;-32
2022/12/10 03:00:06;;;;;;;60.90;43.15;;;-1.00;99.90;;;;;;4961078;28;89643;-30
2022/12/10 03:02:52;;;;;;;72.35;46.15;;;-1.00;99.90;;;;;;4960878;28;89352;-31
2022/12/10 03:05:44;;;;;;;65.63;44.78;;;-1.00;99.90;;;;;;4960564;28;89602;-31
2022/12/10 03:08:22;;;;;;;62.50;41.88;;;-1.10;99.90;;;;;;4960967;28;91349;-29
2022/12/10 03:11:11;;;;;;;65.40;43.00;;;-1.10;99.90;;;;;;4958396;28;90700;-30
2022/12/10 03:14:02;;;;;;;64.88;44.40;;;-1.20;99.90;;;;;;4960370;28;90761;-29
2022/12/10 03:16:36;;;;;;;60.90;39.75;;;-1.10;99.90;;;;;;4960205;28;88027;-31
2022/12/10 03:19:11;;;;;;;59.55;40.55;;;-1.20;99.90;;;;;;4960844;28;90278;-31
2022/12/10 03:21:39;;;;;;;57.47;41.63;;;-1.20;99.90;;;;;;4959984;28;89290;-30
2022/12/10 03:24:05;;;;;;;62.88;40.75;;;-1.30;99.90;;;;;;4960082;28;89607;-31
2022/12/10 03:26:32;;;;;;;61.33;43.38;;;-1.30;99.90;;;;;;4960083;28;88444;-32
2022/12/10 03:29:05;;;;;;;58.45;40.17;;;-1.40;99.90;;;;;;4960354;28;90337;-32
2022/12/10 03:31:32;;;;;;;66.15;41.15;;;-1.40;99.90;;;;;;4960404;28;89826;-31
2022/12/10 03:33:58;;;;;;;59.72;40.72;;;-1.40;99.90;;;;;;4960479;28;89668;-31
2022/12/10 03:36:25;;;;;;;60.25;42.50;;;-1.50;99.90;;;;;;4973998;28;88570;-32
2022/12/10 03:38:51;;;;;;;68.93;45.85;;;-1.40;99.90;;;;;;4960661;28;91213;-31
2022/12/10 03:41:17;;;;;;;63.13;43.97;;;-1.50;99.90;;;;;;4960187;28;89626;-31
2022/12/10 03:43:53;;;;;;;61.38;44.65;;;-1.50;99.90;;;;;;4959204;28;89487;-31
2022/12/10 03:46:19;;;;;;;63.47;45.17;;;-1.50;99.90;;;;;;4960500;28;89770;-30
2022/12/10 03:48:45;;;;;;;55.47;39.95;;;-1.50;99.90;;;;;;4958717;28;89828;-32
2022/12/10 03:51:11;;;;;;;72.30;44.67;;;-1.50;99.90;;;;;;4960199;28;90827;-32
2022/12/10 03:53:36;;;;;;;66.20;44.88;;;-1.50;99.90;;;;;;4959767;28;89842;-32
2022/12/10 03:56:02;;;;;;;69.20;46.90;;;-1.50;99.90;;;;;;4959646;28;88522;-32
2022/12/10 03:58:27;;;;;;;72.57;46.00;;;-1.50;99.90;;;;;;4959734;28;90204;-29
2022/12/10 04:00:53;;;;;;;62.35;44.25;;;-1.50;99.90;;;;;;4959651;28;90607;-31
2022/12/10 04:03:19;;;;;;;68.82;47.85;;;-1.50;99.90;;;;;;4959317;28;90695;-30
2022/12/10 04:05:44;;;;;;;63.42;47.08;;;-1.50;99.90;;;;;;4959436;28;89249;-31
2022/12/10 04:08:10;;;;;;;72.53;46.45;;;-1.50;99.90;;;;;;4959994;28;90479;-34
2022/12/10 04:10:37;;;;;;;70.68;45.03;;;-1.50;99.90;;;;;;4959264;28;89727;-33
2022/12/10 04:18:31;;;;;;;58.88;41.78;;;-1.50;99.90;;;;;;4959466;28;90233;-31
2022/12/10 04:29:11;;;;;;;65.90;45.22;;;-1.60;99.90;;;;;;4959838;28;90001;-31
2022/12/10 04:31:36;;;;;;;77.22;48.63;;;-1.60;99.90;;;;;;4958930;28;90035;-31
2022/12/10 04:34:02;;;;;;;66.70;46.95;;;-1.60;99.90;;;;;;4959734;28;89645;-32
2022/12/10 04:36:27;;;;;;;66.50;46.20;;;-1.60;99.90;;;;;;4959023;28;89784;-28
2022/12/10 04:38:53;;;;;;;65.78;46.35;;;-1.60;99.90;;;;;;4959560;28;90010;-34
2022/12/10 04:41:18;;;;;;;68.18;47.05;;;-1.60;99.90;;;;;;4954497;28;89791;-30
2022/12/10 04:43:44;;;;;;;72.80;48.53;;;-1.60;99.90;;;;;;4949115;28;90256;-31
2022/12/10 04:46:11;;;;;;;69.15;44.58;;;-1.60;99.90;;;;;;4959596;28;87838;-30
2022/12/10 04:48:37;;;;;;;74.15;46.90;;;-1.70;99.90;;;;;;4959130;28;89934;-31
2022/12/10 04:51:03;;;;;;;73.70;48.22;;;-1.60;99.90;;;;;;4958681;28;90583;-34
2022/12/10 04:53:28;;;;;;;69.38;47.10;;;-1.70;99.90;;;;;;4958579;28;90391;-29
2022/12/10 04:55:54;;;;;;;68.57;49.75;;;-1.70;99.90;;;;;;4958925;28;89020;-31
2022/12/10 04:58:19;;;;;;;76.78;49.03;;;-1.70;99.90;;;;;;4958836;28;90537;-33
2022/12/10 05:00:45;;;;;;;73.57;48.20;;;-1.70;99.90;;;;;;4957965;28;88506;-32
2022/12/10 05:03:10;;;;;;;70.20;46.00;;;-1.70;99.90;;;;;;4959113;28;90068;-34
2022/12/10 05:05:36;;;;;;;75.35;50.38;;;-1.70;99.90;;;;;;4958266;28;89159;-32
2022/12/10 05:08:02;;;;;;;70.60;47.35;;;-1.70;99.90;;;;;;4958207;28;90919;-33
2022/12/10 05:10:28;;;;;;;73.05;46.50;;;-1.70;99.90;;;;;;4958962;28;89844;-31
2022/12/10 05:12:53;;;;;;;77.57;49.28;;;-1.70;99.90;;;;;;4958665;28;89006;-31
2022/12/10 05:15:19;;;;;;;71.68;48.35;;;-1.70;99.90;;;;;;4958729;28;90140;-31
2022/12/10 05:17:44;;;;;;;85.65;47.75;;;-1.70;99.90;;;;;;4957940;28;90405;-32
2022/12/10 05:20:10;;;;;;;65.85;46.97;;;-1.70;99.90;;;;;;4958320;28;90058;-31
2022/12/10 05:25:20;;;;;;;73.07;46.88;;;-1.70;99.90;;;;;;4958488;28;89205;-32
2022/12/10 05:27:46;;;;;;;77.65;50.47;;;-1.80;99.90;;;;;;4958809;28;90668;-32
2022/12/10 05:30:11;;;;;;;78.40;51.25;;;-1.80;99.90;;;;;;4958745;28;89676;-32
2022/12/10 05:32:37;;;;;;;67.85;48.13;;;-1.80;99.90;;;;;;4958199;28;89275;-30
2022/12/10 05:35:04;;;;;;;74.47;46.80;;;-1.80;99.90;;;;;;4959077;28;88808;-31
2022/12/10 05:37:29;;;;;;;72.05;50.63;;;-1.90;99.90;;;;;;4957895;28;90488;-31
2022/12/10 05:39:55;;;;;;;68.85;46.47;;;-1.80;99.90;;;;;;4958447;28;90434;-33
2022/12/10 05:42:20;;;;;;;74.07;49.03;;;-1.90;99.90;;;;;;4957978;28;90128;-31
2022/12/10 05:44:46;;;;;;;71.28;47.85;;;-1.90;99.90;;;;;;4958313;28;87903;-32
2022/12/10 05:47:12;;;;;;;70.82;45.92;;;-1.80;99.90;;;;;;4958265;28;90264;-33
2022/12/10 05:49:37;;;;;;;75.32;51.78;;;-1.90;99.90;;;;;;4958549;28;89627;-32
2022/12/10 05:52:03;;;;;;;77.80;48.58;;;-1.80;99.90;;;;;;4957168;28;90573;-30
2022/12/10 05:54:28;;;;;;;76.57;48.88;;;-1.80;99.90;;;;;;4957854;28;89289;-32
2022/12/10 05:56:54;;;;;;;69.45;46.03;;;-1.80;99.90;;;;;;4958362;28;90148;-33
2022/12/10 05:59:20;;;;;;;77.68;47.55;;;-1.80;99.90;;;;;;4958261;28;89202;-30
2022/12/10 06:01:45;;;;;;;73.22;50.85;;;-1.80;99.90;;;;;;4958012;28;89202;-32
2022/12/10 06:04:11;;;;;;;72.43;50.70;;;-1.80;99.90;;;;;;4957839;28;88649;-31
2022/12/10 06:06:38;;;;;;;74.03;46.72;;;-1.80;99.90;;;;;;4957683;28;90104;-31
2022/12/10 06:09:07;;;;;;;75.03;51.33;;;-1.80;99.90;;;;;;4958428;28;89852;-32
2022/12/10 06:11:32;;;;;;;69.00;47.33;;;-1.80;99.90;;;;;;4961163;28;89392;-30
2022/12/10 06:13:58;;;;;;;72.82;49.22;;;-1.80;99.90;;;;;;4976477;28;90032;-32
2022/12/10 06:16:26;;;;;;;70.57;48.42;;;-1.80;99.90;;;;;;4961268;28;90214;-33
2022/12/10 06:18:52;;;;;;;70.00;49.75;;;-1.80;99.90;;;;;;4961646;28;89532;-31
2022/12/10 06:21:19;;;;;;;66.28;48.40;;;-1.80;99.90;;;;;;4961601;28;89799;-32
2022/12/10 06:23:46;;;;;;;66.25;50.55;;;-1.80;99.90;;;;;;4960518;28;90008;-33
2022/12/10 06:26:17;;;;;;;66.22;46.13;;;-1.80;99.90;;;;;;4961790;28;90218;-30
2022/12/10 06:28:47;;;;;;;71.65;52.92;;;-1.80;99.90;;;;;;4960873;28;90798;-32
2022/12/10 06:31:14;;;;;;;70.80;49.75;;;-1.90;99.90;;;;;;4961310;28;89986;-33
2022/12/10 06:33:39;;;;;;;69.80;47.72;;;-1.90;99.90;;;;;;4961085;28;89507;-30
2022/12/10 06:36:07;;;;;;;67.40;50.25;;;-1.90;99.90;;;;;;4960393;28;90322;-32
2022/12/10 06:38:34;;;;;;;79.50;48.40;;;-1.90;99.90;;;;;;4960986;28;90835;-32
2022/12/10 06:41:00;;;;;;;64.10;44.90;;;-1.90;99.90;;;;;;4961091;28;89380;-31
2022/12/10 06:43:29;;;;;;;72.82;50.78;;;-1.90;99.90;;;;;;4960583;28;88545;-32
2022/12/10 06:45:55;;;;;;;71.97;50.97;;;-2.00;99.90;;;;;;4961078;28;89602;-29
2022/12/10 06:48:20;;;;;;;76.93;49.92;;;-1.90;99.90;;;;;;4960828;28;89643;-30
2022/12/10 06:50:46;;;;;;;77.43;48.50;;;-1.90;99.90;;;;;;4960353;28;89886;-33
2022/12/10 06:53:12;;;;;;;67.47;46.25;;;-1.90;99.90;;;;;;4961327;28;90328;-31
2022/12/10 06:55:38;;;;;;;79.10;52.53;;;-1.90;99.90;;;;;;4960845;28;89480;-29
2022/12/10 06:58:04;;;;;;;81.57;51.15;;;-1.90;99.90;;;;;;4961011;28;90187;-31
2022/12/10 07:00:30;;;;;;;68.03;47.22;;;-1.90;99.90;;;;;;4960427;28;89525;-32
2022/12/10 07:02:55;;;;;;;80.28;52.40;;;-1.90;99.90;;;;;;4960681;28;89587;-31
2022/12/10 07:05:21;;;;;;;83.28;50.83;;;-1.80;99.90;;;;;;4961064;28;90162;-30
2022/12/10 07:07:46;;;;;;;73.97;47.83;;;-1.80;99.90;;;;;;4960669;28;90233;-32
2022/12/10 07:10:13;;;;;;;77.05;49.20;;;-1.80;99.90;;;;;;4960700;28;90237;-31
2022/12/10 07:12:39;;;;;;;67.20;49.45;;;-1.80;99.90;;;;;;4960785;28;87728;-30
2022/12/10 07:15:06;;;;;;;73.03;49.65;;;-1.80;99.90;;;;;;4960252;28;89843;-32
2022/12/10 07:17:32;;;;;;;76.43;54.28;;;-1.70;99.90;;;;;;4959767;28;90683;-32
2022/12/10 07:19:57;;;;;;;85.70;56.30;;;-1.70;99.90;;;;;;4961021;28;89598;-30
2022/12/10 07:22:23;;;;;;;83.32;54.35;;;-1.70;99.90;;;;;;4959270;28;89623;-30
2022/12/10 07:24:50;;;;;;;78.03;52.17;;;-1.70;99.90;;;;;;4959987;28;90120;-31
2022/12/10 07:27:15;;;;;;;67.10;48.08;;;-1.70;99.90;;;;;;4959885;28;90004;-31
2022/12/10 07:29:41;;;;;;;82.60;51.85;;;-1.80;99.90;;;;;;4960451;28;89622;-33
2022/12/10 07:32:07;;;;;;;78.93;50.30;;;-1.80;99.90;;;;;;4959782;28;88962;-32
2022/12/10 07:34:32;;;;;;;73.30;47.58;;;-1.80;99.90;;;;;;4960103;28;90000;-30
2022/12/10 07:36:58;;;;;;;72.97;51.47;;;-1.80;99.90;;;;;;4960648;28;89574;-30
2022/12/10 07:39:24;;;;;;;86.18;54.22;;;-1.80;99.90;;;;;;4959726;28;89745;-34
2022/12/10 07:41:52;;;;;;;78.57;52.03;;;-1.80;99.90;;;;;;4959687;28;90300;-33
2022/12/10 07:44:22;;;;;;;71.38;48.53;;;-1.80;99.90;;;;;;4960396;28;90707;-31
2022/12/10 07:46:49;;;;;;;73.22;46.08;;;-1.90;99.90;;;;;;4939689;28;89521;-30
2022/12/10 07:49:15;;;;;;;73.70;47.28;;;-1.90;99.90;;;;;;4957712;28;89875;-30
2022/12/10 07:51:47;;;;;;;69.18;49.38;;;-1.90;99.90;;;;;;4964531;28;90135;-31
2022/12/10 07:54:14;;;;;;;85.40;53.80;;;-1.90;99.90;;;;;;4965585;28;91169;-32
2022/12/10 07:56:39;;;;;;;77.90;50.33;;;-1.90;99.90;;;;;;4968515;28;89789;-30
2022/12/10 07:59:05;;;;;;;78.22;48.58;;;-1.90;99.90;;;;;;4965090;28;89687;-33
2022/12/10 08:01:31;;;;;;;82.82;53.55;;;-1.90;99.90;;;;;;4966940;28;88223;-31
2022/12/10 08:03:57;;;;;;;65.07;46.72;;;-1.90;99.90;;;;;;4971643;28;90040;-30
2022/12/10 08:06:24;;;;;;;79.32;52.17;;;-1.90;99.90;;;;;;4975349;28;90394;-30
2022/12/10 08:08:50;;;;;;;78.75;48.67;;;-2.00;99.90;;;;;;4971741;28;90063;-31
2022/12/10 08:11:18;;;;;;;95.45;55.58;;;-1.90;99.90;;;;;;4967510;28;87642;-32
2022/12/10 08:13:44;;;;;;;78.10;49.00;;;-1.90;99.90;;;;;;4970358;28;89737;-31
2022/12/10 08:16:18;;;;;;;82.57;50.60;;;-1.80;99.90;;;;;;4973532;28;90031;-33
2022/12/10 08:18:44;;;;;;;75.85;49.50;;;-1.80;99.90;;;;;;4974910;28;90525;-29
2022/12/10 08:21:14;;;;;;;84.03;52.15;;;-1.70;99.90;;;;;;4972618;28;89542;-31
2022/12/10 08:23:40;;;;;;;68.97;48.05;;;-1.60;99.90;;;;;;4975258;28;90568;-32
2022/12/10 08:26:19;;;;;;;76.40;48.95;;;-1.60;99.90;;;;;;4964784;28;88866;-33
2022/12/10 08:28:46;;;;;;;75.22;50.53;;;-1.50;99.90;;;;;;4958050;28;89610;-29
2022/12/10 08:31:13;;;;;;;71.75;47.58;;;-1.40;99.90;;;;;;4959020;28;89502;-30
2022/12/10 08:33:40;;;;;;;62.97;44.45;;;-1.40;99.90;;;;;;4971225;28;90050;-30
2022/12/10 08:36:07;;;;;;;73.82;51.05;;;-1.40;99.90;;;;;;4968562;28;90403;-30
2022/12/10 08:38:33;;;;;;;70.40;48.00;;;-1.30;99.90;;;;;;4969693;28;89926;-33
2022/12/10 08:41:04;;;;;;;72.50;51.75;;;-1.30;99.90;;;;;;4970991;28;88155;-31
2022/12/10 08:43:30;;;;;;;75.85;50.17;;;-1.20;99.90;;;;;;4966399;28;89949;-32
2022/12/10 08:45:58;;;;;;;82.25;50.67;;;-1.20;99.90;;;;;;4958875;28;89733;-32
2022/12/10 08:48:24;;;;;;;82.97;52.22;;;-1.20;99.90;;;;;;4958558;28;89374;-33
2022/12/10 08:50:49;;;;;;;72.38;49.47;;;-1.10;99.90;;;;;;4958629;28;88596;-31
2022/12/10 08:53:15;;;;;;;74.25;49.88;;;-1.10;99.90;;;;;;4958847;28;90565;-30
2022/12/10 08:55:40;;;;;;;78.65;52.67;;;-1.00;99.90;;;;;;4958847;28;91076;-30
2022/12/10 08:58:08;;;;;;;76.82;51.80;;;-1.00;99.90;;;;;;4959010;28;90437;-32
2022/12/10 09:00:33;;;;;;;81.57;53.83;;;-0.90;99.90;;;;;;4958135;28;89001;-32
2022/12/10 09:02:59;;;;;;;67.32;44.10;;;-0.90;99.90;;;;;;4963759;28;90255;-31
2022/12/10 09:05:25;;;;;;;76.13;54.75;;;-0.80;99.90;;;;;;4968520;28;89723;-31
2022/12/10 09:07:50;;;;;;;74.07;49.63;;;-0.80;99.90;;;;;;4965234;28;89552;-31
2022/12/10 09:10:16;;;;;;;76.05;47.58;;;-0.80;99.90;;;;;;4959020;28;89473;-31
2022/12/10 09:12:41;;;;;;;82.10;51.22;;;-0.70;99.90;;;;;;4957630;28;90233;-32
2022/12/10 09:15:09;;;;;;;78.15;48.97;;;-0.70;99.90;;;;;;4958446;28;89948;-32
2022/12/10 09:17:37;;;;;;;75.55;52.17;;;-0.70;99.90;;;;;;4959182;28;90317;-30
2022/12/10 09:20:04;;;;;;;67.13;47.33;;;-0.60;99.90;;;;;;4965804;28;88401;-32
2022/12/10 09:22:30;;;;;;;75.82;50.15;;;-0.40;99.90;;;;;;4965418;28;89746;-33
2022/12/10 09:24:55;;;;;;;76.13;49.35;;;-0.30;99.90;;;;;;5012556;22;89815;-32
2022/12/10 09:27:21;;;;;;;82.13;52.85;;;-0.30;99.90;;;;;;4965422;28;90196;-31
2022/12/10 09:29:46;;;;;;;79.45;51.63;;;-0.20;99.90;;;;;;4963490;28;88434;-31
2022/12/10 09:32:12;;;;;;;79.70;50.03;;;-0.10;99.90;;;;;;4971455;28;90190;-30
2022/12/10 09:34:38;;;;;;;73.70;54.90;;;0.00;99.90;;;;;;4966977;28;90191;-33
2022/12/10 09:37:03;;;;;;;77.18;49.33;;;0.10;99.90;;;;;;4971402;28;89678;-32
2022/12/10 09:39:29;;;;;;;79.05;50.28;;;0.10;99.90;;;;;;4962408;28;88639;-32
2022/12/10 09:42:13;;;;;;;70.25;48.45;;;0.20;99.90;;;;;;4961340;28;90865;-31
2022/12/10 09:44:50;;;;;;;67.93;48.33;;;0.30;99.90;;;;;;4955697;28;90016;-34
2022/12/10 09:47:16;;;;;;;76.95;51.65;;;0.40;99.90;;;;;;4960592;28;89637;-31
2022/12/10 09:50:13;;;;;;;77.30;50.05;;;0.40;99.90;;;;;;4960386;28;88938;-33
2022/12/10 09:52:43;;;;;;;77.47;51.92;;;0.40;99.90;;;;;;4958678;28;90822;-30
2022/12/10 09:55:19;;;;;;;69.40;47.03;;;0.40;99.90;;;;;;4958070;28;90940;-31
2022/12/10 09:57:50;;;;;;;64.30;46.33;;;0.40;99.90;;;;;;4957417;28;89314;-30
2022/12/10 10:00:18;;;;;;;74.57;50.53;;;0.40;99.90;;;;;;4960614;28;88436;-31
2022/12/10 10:02:43;;;;;;;81.82;52.75;;;0.30;99.90;;;;;;4957754;28;91068;-33
2022/12/10 10:05:16;;;;;;;77.18;50.25;;;0.30;99.90;;;;;;4958491;28;89037;-32
2022/12/10 10:07:50;;;;;;;70.70;48.30;;;0.30;99.90;;;;;;4956736;28;89646;-33
2022/12/10 10:10:36;;;;;;;77.75;52.60;;;0.30;99.90;;;;;;4959318;28;90454;-32
2022/12/10 10:13:18;;;;;;;74.65;51.00;;;0.30;99.90;;;;;;4960047;28;89470;-32
2022/12/10 10:15:45;;;;;;;72.03;52.42;;;0.30;99.90;;;;;;4959272;28;92025;-30
2022/12/10 10:18:32;;;;;;;71.80;47.95;;;0.40;99.90;;;;;;4961317;28;89187;-30
2022/12/10 10:20:58;;;;;;;74.60;48.63;;;0.40;99.90;;;;;;4960608;28;89153;-32
2022/12/10 10:23:24;;;;;;;75.85;47.88;;;0.40;99.90;;;;;;4961593;28;89802;-32
2022/12/10 10:25:49;;;;;;;74.10;50.65;;;0.40;99.90;;;;;;4965273;28;89916;-34
2022/12/10 10:28:20;;;;;;;78.82;52.45;;;0.40;99.90;;;;;;4959352;28;90781;-31
2022/12/10 10:30:45;;;;;;;69.50;49.88;;;0.40;99.90;;;;;;4959327;28;88238;-33
2022/12/10 10:33:13;;;;;;;73.20;46.60;;;0.40;99.90;;;;;;4961154;28;90235;-30
2022/12/10 10:35:53;;;;;;;73.47;50.80;;;0.40;99.90;;;;;;4972723;28;91724;-33
2022/12/10 10:38:29;;;;;;;76.47;52.50;;;0.40;99.90;;;;;;4968660;28;89956;-32
2022/12/10 10:40:57;;;;;;;73.55;50.35;;;0.50;99.90;;;;;;4972293;28;88475;-32
2022/12/10 10:43:41;;;;;;;63.77;48.57;;;0.50;99.90;;;;;;4966647;28;89692;-32
2022/12/10 10:46:14;;;;;;;73.78;46.60;;;0.60;99.90;;;;;;4959835;28;89652;-31
2022/12/10 10:48:40;;;;;;;75.30;50.85;;;0.60;99.90;;;;;;4958999;28;89998;-32
2022/12/10 10:51:20;;;;;;;80.65;52.30;;;0.50;99.90;;;;;;4958182;28;88284;-33
2022/12/10 10:54:03;;;;;;;78.18;54.40;;;0.50;99.90;;;;;;4963135;28;89574;-32
2022/12/10 10:56:41;;;;;;;75.00;50.72;;;0.50;99.90;;;;;;4965783;28;89864;-34
2022/12/10 10:59:30;;;;;;;79.80;51.37;;;0.40;99.90;;;;;;4964131;28;89260;-31
2022/12/10 11:02:28;;;;;;;75.10;51.33;;;0.40;99.90;;;;;;4966285;28;89988;-33
2022/12/10 11:04:58;;;;;;;75.63;49.90;;;0.40;99.90;;;;;;4961400;28;90870;-34
2022/12/10 11:07:30;;;;;;;73.70;52.30;;;0.40;99.90;;;;;;4956875;28;90598;-34
2022/12/10 11:09:56;;;;;;;76.63;51.90;;;0.30;99.90;;;;;;4968739;28;90401;-31
2022/12/10 11:12:36;;;;;;;72.53;54.03;;;0.30;99.90;;;;;;4977225;28;88568;-32
2022/12/10 11:15:28;;;;;;;77.05;52.63;;;0.30;99.90;;;;;;4978383;28;90274;-34
2022/12/10 11:17:55;;;;;;;80.63;52.78;;;0.20;99.90;;;;;;4959927;28;89863;-32
2022/12/10 11:20:34;;;;;;;72.78;45.67;;;0.20;99.90;;;;;;4962592;28;90141;-33
2022/12/10 11:23:02;;;;;;;75.70;50.38;;;0.20;99.90;;;;;;4960737;28;88354;-32
2022/12/10 11:25:43;;;;;;;;;;;0.20;99.90;;;;;;4962193;28;90452;-31
2022/12/10 11:28:40;;;;;;;79.70;54.10;;;0.20;99.90;;;;;;4960904;28;90396;-33
2022/12/10 11:31:31;;;;;;;68.00;51.53;;;0.20;99.90;;;;;;4969480;28;90408;-31
2022/12/10 11:34:09;;;;;;;78.95;53.50;;;0.20;99.90;;;;;;4962789;28;88278;-30
2022/12/10 11:36:44;;;;;;;77.03;51.10;;;0.20;99.90;;;;;;4963536;28;90227;-31
2022/12/10 11:39:38;;;;;;;71.88;47.72;;;0.10;99.90;;;;;;4967053;28;89838;-33
2022/12/10 11:42:16;;;;;;;79.43;52.25;;;0.20;99.90;;;;;;4936689;28;89409;-34
2022/12/10 11:45:06;;;;;;;76.22;50.30;;;0.20;99.90;;;;;;4959588;28;89532;-33
2022/12/10 11:47:47;;;;;;;71.65;49.60;;;0.20;99.90;;;;;;4957377;28;90227;-33
2022/12/10 11:50:38;;;;;;;83.00;53.22;;;0.20;99.90;;;;;;4957923;28;89815;-33
2022/12/10 11:53:48;;;;;;;76.45;52.13;;;0.20;99.90;;;;;;4957062;28;89476;-32
2022/12/10 11:56:26;;;;;;;77.72;53.58;;;0.10;99.90;;;;;;4952003;28;89461;-31
2022/12/10 11:59:23;;;;;;;76.40;47.90;;;0.10;99.90;;;;;;4956926;28;90821;-32
2022/12/10 12:01:59;;;;;;;66.75;44.38;;;0.10;99.90;;;;;;4956588;28;89008;-31
2022/12/10 12:04:52;;;;;;;82.70;53.38;;;0.10;99.90;;;;;;4960653;28;89510;-31
2022/12/10 12:07:31;;;;;;;77.47;53.97;;;0.00;99.90;;;;;;4957317;28;89934;-33
2022/12/10 12:10:35;;;;;;;77.20;48.05;;;0.00;99.90;;;;;;4956823;28;91092;-32
2022/12/10 12:13:11;;;;;;;76.97;53.28;;;0.00;99.90;;;;;;4956910;28;89787;-33
2022/12/10 12:15:48;;;;;;;70.82;45.60;;;0.00;99.90;;;;;;4972399;28;88974;-31
2022/12/10 12:18:23;;;;;;;87.40;56.65;;;0.00;99.90;;;;;;4958042;28;88681;-33
2022/12/10 12:21:04;;;;;;;80.13;53.45;;;0.10;99.90;;;;;;4957423;28;89798;-32
2022/12/10 12:23:45;;;;;;;79.22;51.83;;;0.00;99.90;;;;;;4955020;28;90371;-33
2022/12/10 12:26:19;;;;;;;76.85;55.15;;;0.00;99.90;;;;;;4957150;28;89874;-32
2022/12/10 12:28:55;;;;;;;82.60;54.65;;;0.00;99.90;;;;;;4957114;28;88877;-30
2022/12/10 12:31:45;;;;;;;87.38;54.63;;;0.00;99.90;;;;;;4957269;28;90849;-32
2022/12/10 12:34:18;;;;;;;72.55;47.40;;;0.00;99.90;;;;;;4952941;28;89412;-35
2022/12/10 12:36:44;;;;;;;75.00;51.30;;;-0.10;99.90;;;;;;4956255;28;89291;-34
2022/12/10 12:39:34;;;;;;;82.15;52.80;;;-0.10;99.90;;;;;;4957605;28;88606;-32
2022/12/10 12:42:22;;;;;;;82.53;53.88;;;-0.10;99.90;;;;;;4956781;28;89944;-33
2022/12/10 12:45:03;;;;;;;80.65;48.90;;;-0.20;99.90;;;;;;4955685;28;89624;-35
2022/12/10 12:47:28;;;;;;;82.32;55.60;;;-0.10;99.90;;;;;;4958371;28;89653;-32
2022/12/10 12:49:56;;;;;;;85.13;53.50;;;-0.10;99.90;;;;;;4956739;28;89215;-33
2022/12/10 12:52:48;;;;;;;75.07;47.90;;;-0.20;99.90;;;;;;4957431;28;90374;-33
2022/12/10 12:55:42;;;;;;;76.53;52.00;;;-0.20;99.90;;;;;;4956704;28;88574;-33
2022/12/10 12:58:26;;;;;;;74.45;48.42;;;-0.20;99.90;;;;;;4957617;28;89524;-31
2022/12/10 13:00:58;;;;;;;87.35;52.85;;;-0.10;99.90;;;;;;4957940;28;89120;-31
2022/12/10 13:03:27;;;;;;;90.38;53.80;;;-0.20;99.90;;;;;;4960757;28;90825;-37
2022/12/10 13:05:54;;;;;;;87.47;54.35;;;-0.10;99.90;;;;;;4961639;28;90035;-32